sensor_id;sensor_type;location;lat;lon;timestamp;P1;durP1;ratioP1;P2;durP2;ratioP2
18338;SDS011;9295;44.484;11.240;2023-07-31T00:00:15;7.80;;;3.80;;
18338;SDS011;9295;44.484;11.240;2023-07-31T00:02:44;6.40;;;3.80;;
18338;SDS011;9295;44.484;11.240;2023-07-31T00:05:12;7.40;;;4.40;;
18338;SDS011;9295;44.484;11.240;2023-07-31T00:07:41;8.83;;;4.30;;
18338;SDS011;9295;44.484;11.240;2023-07-31T00:10:10;8.17;;;4.17;;
18338;SDS011;9295;44.484;11.240;2023-07-31T00:12:38;6.53;;;4.17;;
18338;SDS011;9295;44.484;11.240;2023-07-31T00:15:08;5.83;;;3.77;;
18338;SDS011;9295;44.484;11.240;2023-07-31T00:17:38;7.13;;;4.10;;
18338;SDS011;9295;44.484;11.240;2023-07-31T00:20:07;6.60;;;4.03;;
18338;SDS011;9295;44.484;11.240;2023-07-31T00:22:36;9.50;;;5.10;;
18338;SDS011;9295;44.484;11.240;2023-07-31T00:25:05;8.37;;;4.70;;
18338;SDS011;9295;44.484;11.240;2023-07-31T00:27:34;8.43;;;4.30;;
18338;SDS011;9295;44.484;11.240;2023-07-31T00:30:04;7.73;;;3.83;;
18338;SDS011;9295;44.484;11.240;2023-07-31T00:32:33;8.50;;;4.37;;
18338;SDS011;9295;44.484;11.240;2023-07-31T00:35:04;13.57;;;4.83;;
18338;SDS011;9295;44.484;11.240;2023-07-31T00:37:33;12.90;;;4.23;;
18338;SDS011;9295;44.484;11.240;2023-07-31T00:40:01;7.20;;;4.20;;
18338;SDS011;9295;44.484;11.240;2023-07-31T00:42:30;6.23;;;4.10;;
18338;SDS011;9295;44.484;11.240;2023-07-31T00:44:59;11.10;;;4.00;;
18338;SDS011;9295;44.484;11.240;2023-07-31T00:47:29;8.70;;;4.67;;
18338;SDS011;9295;44.484;11.240;2023-07-31T00:49:58;8.73;;;4.30;;
18338;SDS011;9295;44.484;11.240;2023-07-31T00:52:28;6.60;;;4.20;;
18338;SDS011;9295;44.484;11.240;2023-07-31T00:54:57;11.63;;;4.60;;
18338;SDS011;9295;44.484;11.240;2023-07-31T00:57:26;6.37;;;4.00;;
18338;SDS011;9295;44.484;11.240;2023-07-31T00:59:54;6.67;;;4.10;;
18338;SDS011;9295;44.484;11.240;2023-07-31T01:02:23;8.33;;;4.33;;
18338;SDS011;9295;44.484;11.240;2023-07-31T01:04:51;8.00;;;4.20;;
18338;SDS011;9295;44.484;11.240;2023-07-31T01:07:22;7.77;;;4.20;;
18338;SDS011;9295;44.484;11.240;2023-07-31T01:09:59;8.40;;;4.63;;
18338;SDS011;9295;44.484;11.240;2023-07-31T01:12:32;6.90;;;4.33;;
18338;SDS011;9295;44.484;11.240;2023-07-31T01:15:03;5.43;;;4.00;;
18338;SDS011;9295;44.484;11.240;2023-07-31T01:17:33;12.00;;;4.30;;
18338;SDS011;9295;44.484;11.240;2023-07-31T01:20:03;6.97;;;4.27;;
18338;SDS011;9295;44.484;11.240;2023-07-31T01:22:47;7.70;;;4.30;;
18338;SDS011;9295;44.484;11.240;2023-07-31T01:25:32;8.80;;;4.30;;
18338;SDS011;9295;44.484;11.240;2023-07-31T01:28:23;13.17;;;4.03;;
18338;SDS011;9295;44.484;11.240;2023-07-31T01:30:56;9.00;;;4.83;;
18338;SDS011;9295;44.484;11.240;2023-07-31T01:33:28;10.10;;;4.80;;
18338;SDS011;9295;44.484;11.240;2023-07-31T01:35:57;7.03;;;4.70;;
18338;SDS011;9295;44.484;11.240;2023-07-31T01:38:25;7.27;;;4.20;;
18338;SDS011;9295;44.484;11.240;2023-07-31T01:40:56;9.60;;;4.50;;
18338;SDS011;9295;44.484;11.240;2023-07-31T01:43:25;7.47;;;4.70;;
18338;SDS011;9295;44.484;11.240;2023-07-31T01:45:53;10.73;;;4.30;;
18338;SDS011;9295;44.484;11.240;2023-07-31T01:48:23;12.60;;;4.90;;
18338;SDS011;9295;44.484;11.240;2023-07-31T01:50:52;6.90;;;4.30;;
18338;SDS011;9295;44.484;11.240;2023-07-31T01:53:20;7.53;;;4.57;;
18338;SDS011;9295;44.484;11.240;2023-07-31T01:55:49;11.43;;;4.70;;
18338;SDS011;9295;44.484;11.240;2023-07-31T01:58:19;7.70;;;4.97;;
18338;SDS011;9295;44.484;11.240;2023-07-31T02:00:48;8.20;;;4.77;;
18338;SDS011;9295;44.484;11.240;2023-07-31T02:03:16;9.97;;;4.83;;
18338;SDS011;9295;44.484;11.240;2023-07-31T02:05:45;10.37;;;4.07;;
18338;SDS011;9295;44.484;11.240;2023-07-31T02:08:14;7.57;;;4.40;;
18338;SDS011;9295;44.484;11.240;2023-07-31T02:10:43;11.47;;;4.70;;
18338;SDS011;9295;44.484;11.240;2023-07-31T02:13:12;8.73;;;4.70;;
18338;SDS011;9295;44.484;11.240;2023-07-31T02:15:42;10.27;;;5.87;;
18338;SDS011;9295;44.484;11.240;2023-07-31T02:18:10;9.80;;;6.57;;
18338;SDS011;9295;44.484;11.240;2023-07-31T02:20:39;12.20;;;4.97;;
18338;SDS011;9295;44.484;11.240;2023-07-31T02:23:07;6.87;;;4.37;;
18338;SDS011;9295;44.484;11.240;2023-07-31T02:25:36;8.07;;;4.87;;
18338;SDS011;9295;44.484;11.240;2023-07-31T02:28:05;9.43;;;4.67;;
18338;SDS011;9295;44.484;11.240;2023-07-31T02:30:33;6.50;;;4.13;;
18338;SDS011;9295;44.484;11.240;2023-07-31T02:33:03;8.57;;;4.47;;
18338;SDS011;9295;44.484;11.240;2023-07-31T02:35:32;8.90;;;4.07;;
18338;SDS011;9295;44.484;11.240;2023-07-31T02:38:00;8.63;;;4.27;;
18338;SDS011;9295;44.484;11.240;2023-07-31T02:40:29;6.70;;;4.27;;
18338;SDS011;9295;44.484;11.240;2023-07-31T02:42:58;8.80;;;4.27;;
18338;SDS011;9295;44.484;11.240;2023-07-31T02:45:26;13.60;;;4.57;;
18338;SDS011;9295;44.484;11.240;2023-07-31T02:47:55;7.30;;;4.57;;
18338;SDS011;9295;44.484;11.240;2023-07-31T02:50:26;15.03;;;5.30;;
18338;SDS011;9295;44.484;11.240;2023-07-31T02:52:56;6.83;;;4.50;;
18338;SDS011;9295;44.484;11.240;2023-07-31T02:55:26;5.90;;;3.90;;
18338;SDS011;9295;44.484;11.240;2023-07-31T02:57:55;8.17;;;4.40;;
18338;SDS011;9295;44.484;11.240;2023-07-31T03:00:26;7.40;;;4.40;;
18338;SDS011;9295;44.484;11.240;2023-07-31T03:02:55;11.40;;;4.30;;
18338;SDS011;9295;44.484;11.240;2023-07-31T03:05:25;6.60;;;4.20;;
18338;SDS011;9295;44.484;11.240;2023-07-31T03:07:54;11.70;;;4.60;;
18338;SDS011;9295;44.484;11.240;2023-07-31T03:10:23;7.67;;;4.43;;
18338;SDS011;9295;44.484;11.240;2023-07-31T03:12:51;16.53;;;4.60;;
18338;SDS011;9295;44.484;11.240;2023-07-31T03:15:20;7.40;;;4.53;;
18338;SDS011;9295;44.484;11.240;2023-07-31T03:17:48;13.93;;;4.13;;
18338;SDS011;9295;44.484;11.240;2023-07-31T03:20:17;6.17;;;4.13;;
18338;SDS011;9295;44.484;11.240;2023-07-31T03:22:47;6.60;;;4.40;;
18338;SDS011;9295;44.484;11.240;2023-07-31T03:25:16;9.77;;;4.27;;
18338;SDS011;9295;44.484;11.240;2023-07-31T03:27:44;6.07;;;4.13;;
18338;SDS011;9295;44.484;11.240;2023-07-31T03:30:13;7.63;;;4.50;;
18338;SDS011;9295;44.484;11.240;2023-07-31T03:32:41;6.40;;;4.13;;
18338;SDS011;9295;44.484;11.240;2023-07-31T03:35:10;11.33;;;4.60;;
18338;SDS011;9295;44.484;11.240;2023-07-31T03:37:39;7.87;;;4.23;;
18338;SDS011;9295;44.484;11.240;2023-07-31T03:40:09;6.50;;;4.37;;
18338;SDS011;9295;44.484;11.240;2023-07-31T03:42:38;9.30;;;4.03;;
18338;SDS011;9295;44.484;11.240;2023-07-31T03:45:08;9.03;;;4.93;;
18338;SDS011;9295;44.484;11.240;2023-07-31T03:47:37;8.00;;;4.73;;
18338;SDS011;9295;44.484;11.240;2023-07-31T03:50:06;9.23;;;4.70;;
18338;SDS011;9295;44.484;11.240;2023-07-31T03:52:35;8.37;;;4.43;;
18338;SDS011;9295;44.484;11.240;2023-07-31T03:55:04;8.13;;;4.83;;
18338;SDS011;9295;44.484;11.240;2023-07-31T03:57:34;13.97;;;4.60;;
18338;SDS011;9295;44.484;11.240;2023-07-31T04:00:03;7.67;;;4.30;;
18338;SDS011;9295;44.484;11.240;2023-07-31T04:02:37;9.37;;;4.50;;
18338;SDS011;9295;44.484;11.240;2023-07-31T04:05:06;7.60;;;5.03;;
18338;SDS011;9295;44.484;11.240;2023-07-31T04:07:36;6.57;;;4.47;;
18338;SDS011;9295;44.484;11.240;2023-07-31T04:10:05;6.33;;;4.40;;
18338;SDS011;9295;44.484;11.240;2023-07-31T04:12:39;11.03;;;4.57;;
18338;SDS011;9295;44.484;11.240;2023-07-31T04:15:08;9.00;;;4.60;;
18338;SDS011;9295;44.484;11.240;2023-07-31T04:17:37;6.63;;;4.27;;
18338;SDS011;9295;44.484;11.240;2023-07-31T04:20:06;9.17;;;4.37;;
18338;SDS011;9295;44.484;11.240;2023-07-31T04:22:35;10.07;;;4.73;;
18338;SDS011;9295;44.484;11.240;2023-07-31T04:25:03;6.33;;;3.83;;
18338;SDS011;9295;44.484;11.240;2023-07-31T04:27:32;6.17;;;4.03;;
18338;SDS011;9295;44.484;11.240;2023-07-31T04:30:03;5.77;;;4.20;;
18338;SDS011;9295;44.484;11.240;2023-07-31T04:32:32;10.87;;;4.17;;
18338;SDS011;9295;44.484;11.240;2023-07-31T04:35:02;7.47;;;4.37;;
18338;SDS011;9295;44.484;11.240;2023-07-31T04:37:31;11.47;;;4.57;;
18338;SDS011;9295;44.484;11.240;2023-07-31T04:39:59;8.80;;;4.00;;
18338;SDS011;9295;44.484;11.240;2023-07-31T04:42:28;5.80;;;4.13;;
18338;SDS011;9295;44.484;11.240;2023-07-31T04:44:56;13.70;;;4.60;;
18338;SDS011;9295;44.484;11.240;2023-07-31T04:47:26;13.43;;;4.20;;
18338;SDS011;9295;44.484;11.240;2023-07-31T04:49:55;8.53;;;4.80;;
18338;SDS011;9295;44.484;11.240;2023-07-31T04:52:23;11.63;;;4.60;;
18338;SDS011;9295;44.484;11.240;2023-07-31T04:54:52;8.37;;;4.13;;
18338;SDS011;9295;44.484;11.240;2023-07-31T04:57:20;8.87;;;4.10;;
18338;SDS011;9295;44.484;11.240;2023-07-31T04:59:49;12.00;;;4.70;;
18338;SDS011;9295;44.484;11.240;2023-07-31T05:02:17;7.23;;;4.07;;
18338;SDS011;9295;44.484;11.240;2023-07-31T05:04:47;13.93;;;4.40;;
18338;SDS011;9295;44.484;11.240;2023-07-31T05:07:16;7.30;;;3.83;;
18338;SDS011;9295;44.484;11.240;2023-07-31T05:09:45;7.43;;;3.50;;
18338;SDS011;9295;44.484;11.240;2023-07-31T05:12:13;7.20;;;4.23;;
18338;SDS011;9295;44.484;11.240;2023-07-31T05:14:42;7.53;;;3.90;;
18338;SDS011;9295;44.484;11.240;2023-07-31T05:17:10;6.67;;;3.87;;
18338;SDS011;9295;44.484;11.240;2023-07-31T05:19:39;5.93;;;3.57;;
18338;SDS011;9295;44.484;11.240;2023-07-31T05:22:09;7.03;;;3.73;;
18338;SDS011;9295;44.484;11.240;2023-07-31T05:24:37;6.80;;;3.53;;
18338;SDS011;9295;44.484;11.240;2023-07-31T05:27:06;9.20;;;3.83;;
18338;SDS011;9295;44.484;11.240;2023-07-31T05:29:36;7.47;;;3.77;;
18338;SDS011;9295;44.484;11.240;2023-07-31T05:32:05;8.43;;;3.53;;
18338;SDS011;9295;44.484;11.240;2023-07-31T05:34:34;7.10;;;3.87;;
18338;SDS011;9295;44.484;11.240;2023-07-31T05:37:03;7.87;;;3.73;;
18338;SDS011;9295;44.484;11.240;2023-07-31T05:39:34;7.93;;;3.70;;
18338;SDS011;9295;44.484;11.240;2023-07-31T05:42:03;7.57;;;3.77;;
18338;SDS011;9295;44.484;11.240;2023-07-31T05:44:34;8.03;;;3.93;;
18338;SDS011;9295;44.484;11.240;2023-07-31T05:47:07;10.70;;;4.10;;
18338;SDS011;9295;44.484;11.240;2023-07-31T05:49:37;11.90;;;3.60;;
18338;SDS011;9295;44.484;11.240;2023-07-31T05:52:07;9.00;;;4.07;;
18338;SDS011;9295;44.484;11.240;2023-07-31T05:54:38;6.90;;;3.90;;
18338;SDS011;9295;44.484;11.240;2023-07-31T05:57:10;7.13;;;3.87;;
18338;SDS011;9295;44.484;11.240;2023-07-31T05:59:41;9.40;;;3.80;;
18338;SDS011;9295;44.484;11.240;2023-07-31T06:02:12;6.43;;;3.93;;
18338;SDS011;9295;44.484;11.240;2023-07-31T06:04:43;7.57;;;3.63;;
18338;SDS011;9295;44.484;11.240;2023-07-31T06:07:13;15.00;;;4.00;;
18338;SDS011;9295;44.484;11.240;2023-07-31T06:09:45;6.53;;;3.80;;
18338;SDS011;9295;44.484;11.240;2023-07-31T06:12:15;6.57;;;4.00;;
18338;SDS011;9295;44.484;11.240;2023-07-31T06:14:47;7.17;;;3.60;;
18338;SDS011;9295;44.484;11.240;2023-07-31T06:17:17;8.27;;;3.40;;
18338;SDS011;9295;44.484;11.240;2023-07-31T06:19:47;12.60;;;3.90;;
18338;SDS011;9295;44.484;11.240;2023-07-31T06:22:22;7.37;;;3.83;;
18338;SDS011;9295;44.484;11.240;2023-07-31T06:24:52;9.00;;;4.40;;
18338;SDS011;9295;44.484;11.240;2023-07-31T06:27:21;8.00;;;4.23;;
18338;SDS011;9295;44.484;11.240;2023-07-31T06:29:50;8.03;;;3.70;;
18338;SDS011;9295;44.484;11.240;2023-07-31T06:32:19;11.90;;;3.83;;
18338;SDS011;9295;44.484;11.240;2023-07-31T06:34:48;7.67;;;3.80;;
18338;SDS011;9295;44.484;11.240;2023-07-31T06:37:17;7.30;;;3.70;;
18338;SDS011;9295;44.484;11.240;2023-07-31T06:39:46;6.13;;;3.57;;
18338;SDS011;9295;44.484;11.240;2023-07-31T06:42:16;15.20;;;4.00;;
18338;SDS011;9295;44.484;11.240;2023-07-31T06:44:50;7.73;;;4.00;;
18338;SDS011;9295;44.484;11.240;2023-07-31T06:47:19;9.60;;;3.93;;
18338;SDS011;9295;44.484;11.240;2023-07-31T06:49:48;7.57;;;3.93;;
18338;SDS011;9295;44.484;11.240;2023-07-31T06:52:16;9.30;;;3.17;;
18338;SDS011;9295;44.484;11.240;2023-07-31T06:54:56;16.47;;;3.47;;
18338;SDS011;9295;44.484;11.240;2023-07-31T06:57:30;8.27;;;3.60;;
18338;SDS011;9295;44.484;11.240;2023-07-31T06:59:59;14.73;;;3.87;;
18338;SDS011;9295;44.484;11.240;2023-07-31T07:02:30;6.87;;;3.07;;
18338;SDS011;9295;44.484;11.240;2023-07-31T07:04:59;11.40;;;3.20;;
18338;SDS011;9295;44.484;11.240;2023-07-31T07:07:28;7.90;;;3.37;;
18338;SDS011;9295;44.484;11.240;2023-07-31T07:09:56;12.40;;;3.43;;
18338;SDS011;9295;44.484;11.240;2023-07-31T07:12:27;7.43;;;3.20;;
18338;SDS011;9295;44.484;11.240;2023-07-31T07:14:58;9.53;;;3.27;;
18338;SDS011;9295;44.484;11.240;2023-07-31T07:17:28;6.47;;;3.07;;
18338;SDS011;9295;44.484;11.240;2023-07-31T07:19:58;6.33;;;2.70;;
18338;SDS011;9295;44.484;11.240;2023-07-31T07:22:27;6.93;;;3.30;;
18338;SDS011;9295;44.484;11.240;2023-07-31T07:24:57;14.93;;;3.30;;
18338;SDS011;9295;44.484;11.240;2023-07-31T07:27:25;5.70;;;3.00;;
18338;SDS011;9295;44.484;11.240;2023-07-31T07:29:54;6.50;;;3.00;;
18338;SDS011;9295;44.484;11.240;2023-07-31T07:32:25;10.20;;;3.13;;
18338;SDS011;9295;44.484;11.240;2023-07-31T07:34:54;11.60;;;3.50;;
18338;SDS011;9295;44.484;11.240;2023-07-31T07:37:23;10.03;;;3.00;;
18338;SDS011;9295;44.484;11.240;2023-07-31T07:39:52;7.53;;;3.13;;
18338;SDS011;9295;44.484;11.240;2023-07-31T07:42:21;11.27;;;2.67;;
18338;SDS011;9295;44.484;11.240;2023-07-31T07:44:49;5.10;;;2.67;;
18338;SDS011;9295;44.484;11.240;2023-07-31T07:47:18;9.10;;;3.40;;
18338;SDS011;9295;44.484;11.240;2023-07-31T07:49:48;8.67;;;3.00;;
18338;SDS011;9295;44.484;11.240;2023-07-31T07:52:19;10.97;;;2.80;;
18338;SDS011;9295;44.484;11.240;2023-07-31T07:54:49;9.57;;;2.63;;
18338;SDS011;9295;44.484;11.240;2023-07-31T07:57:18;6.93;;;3.00;;
18338;SDS011;9295;44.484;11.240;2023-07-31T07:59:46;3.63;;;2.53;;
18338;SDS011;9295;44.484;11.240;2023-07-31T08:02:15;10.57;;;3.03;;
18338;SDS011;9295;44.484;11.240;2023-07-31T08:04:43;5.70;;;2.47;;
18338;SDS011;9295;44.484;11.240;2023-07-31T08:07:13;8.03;;;3.03;;
18338;SDS011;9295;44.484;11.240;2023-07-31T08:09:42;5.17;;;2.50;;
18338;SDS011;9295;44.484;11.240;2023-07-31T08:12:11;5.37;;;2.73;;
18338;SDS011;9295;44.484;11.240;2023-07-31T08:14:40;7.80;;;2.77;;
18338;SDS011;9295;44.484;11.240;2023-07-31T08:17:08;5.63;;;2.80;;
18338;SDS011;9295;44.484;11.240;2023-07-31T08:19:37;5.73;;;2.57;;
18338;SDS011;9295;44.484;11.240;2023-07-31T08:22:05;6.90;;;2.63;;
18338;SDS011;9295;44.484;11.240;2023-07-31T08:24:35;5.40;;;2.67;;
18338;SDS011;9295;44.484;11.240;2023-07-31T08:27:05;6.80;;;3.00;;
18338;SDS011;9295;44.484;11.240;2023-07-31T08:29:34;5.70;;;2.73;;
18338;SDS011;9295;44.484;11.240;2023-07-31T08:32:03;8.10;;;2.77;;
18338;SDS011;9295;44.484;11.240;2023-07-31T08:34:33;13.10;;;3.10;;
18338;SDS011;9295;44.484;11.240;2023-07-31T08:37:01;5.60;;;2.50;;
18338;SDS011;9295;44.484;11.240;2023-07-31T08:39:30;5.10;;;2.30;;
18338;SDS011;9295;44.484;11.240;2023-07-31T08:42:00;6.03;;;2.60;;
18338;SDS011;9295;44.484;11.240;2023-07-31T08:44:29;7.63;;;2.60;;
18338;SDS011;9295;44.484;11.240;2023-07-31T08:46:59;6.60;;;2.67;;
18338;SDS011;9295;44.484;11.240;2023-07-31T08:49:29;6.77;;;2.57;;
18338;SDS011;9295;44.484;11.240;2023-07-31T08:51:59;7.93;;;2.77;;
18338;SDS011;9295;44.484;11.240;2023-07-31T08:54:28;11.17;;;2.83;;
18338;SDS011;9295;44.484;11.240;2023-07-31T08:56:58;3.77;;;1.90;;
18338;SDS011;9295;44.484;11.240;2023-07-31T08:59:29;13.60;;;3.10;;
18338;SDS011;9295;44.484;11.240;2023-07-31T09:02:00;5.07;;;2.67;;
18338;SDS011;9295;44.484;11.240;2023-07-31T09:04:33;7.57;;;3.07;;
18338;SDS011;9295;44.484;11.240;2023-07-31T09:07:03;12.47;;;2.80;;
18338;SDS011;9295;44.484;11.240;2023-07-31T09:09:33;7.13;;;2.83;;
18338;SDS011;9295;44.484;11.240;2023-07-31T09:12:04;4.87;;;3.00;;
18338;SDS011;9295;44.484;11.240;2023-07-31T09:14:34;6.77;;;2.57;;
18338;SDS011;9295;44.484;11.240;2023-07-31T09:17:04;7.17;;;3.00;;
18338;SDS011;9295;44.484;11.240;2023-07-31T09:19:34;7.13;;;2.80;;
18338;SDS011;9295;44.484;11.240;2023-07-31T09:22:04;4.40;;;2.70;;
18338;SDS011;9295;44.484;11.240;2023-07-31T09:24:34;6.90;;;2.87;;
18338;SDS011;9295;44.484;11.240;2023-07-31T09:27:05;6.47;;;3.10;;
18338;SDS011;9295;44.484;11.240;2023-07-31T09:29:34;5.90;;;2.90;;
18338;SDS011;9295;44.484;11.240;2023-07-31T09:32:03;7.13;;;2.40;;
18338;SDS011;9295;44.484;11.240;2023-07-31T09:34:36;9.97;;;2.60;;
18338;SDS011;9295;44.484;11.240;2023-07-31T09:37:06;5.90;;;2.60;;
18338;SDS011;9295;44.484;11.240;2023-07-31T09:39:45;8.80;;;2.53;;
18338;SDS011;9295;44.484;11.240;2023-07-31T09:42:15;7.60;;;2.57;;
18338;SDS011;9295;44.484;11.240;2023-07-31T09:44:53;4.70;;;2.67;;
18338;SDS011;9295;44.484;11.240;2023-07-31T09:47:25;5.13;;;2.90;;
18338;SDS011;9295;44.484;11.240;2023-07-31T09:49:54;5.10;;;2.17;;
18338;SDS011;9295;44.484;11.240;2023-07-31T09:52:22;10.73;;;2.53;;
18338;SDS011;9295;44.484;11.240;2023-07-31T09:54:54;4.47;;;2.57;;
18338;SDS011;9295;44.484;11.240;2023-07-31T09:57:24;12.50;;;2.97;;
18338;SDS011;9295;44.484;11.240;2023-07-31T09:59:53;5.43;;;2.50;;
18338;SDS011;9295;44.484;11.240;2023-07-31T10:02:23;16.20;;;3.47;;
18338;SDS011;9295;44.484;11.240;2023-07-31T10:04:53;7.47;;;2.50;;
18338;SDS011;9295;44.484;11.240;2023-07-31T10:07:27;19.20;;;3.27;;
18338;SDS011;9295;44.484;11.240;2023-07-31T10:09:58;7.67;;;2.20;;
18338;SDS011;9295;44.484;11.240;2023-07-31T10:12:32;7.40;;;2.80;;
18338;SDS011;9295;44.484;11.240;2023-07-31T10:15:01;4.83;;;2.20;;
18338;SDS011;9295;44.484;11.240;2023-07-31T10:17:31;5.67;;;2.80;;
18338;SDS011;9295;44.484;11.240;2023-07-31T10:20:02;6.97;;;2.67;;
18338;SDS011;9295;44.484;11.240;2023-07-31T10:22:32;6.80;;;2.60;;
18338;SDS011;9295;44.484;11.240;2023-07-31T10:25:01;5.43;;;2.50;;
18338;SDS011;9295;44.484;11.240;2023-07-31T10:27:32;6.90;;;2.30;;
18338;SDS011;9295;44.484;11.240;2023-07-31T10:30:03;6.63;;;2.33;;
18338;SDS011;9295;44.484;11.240;2023-07-31T10:32:33;5.17;;;2.43;;
18338;SDS011;9295;44.484;11.240;2023-07-31T10:35:03;3.67;;;2.23;;
18338;SDS011;9295;44.484;11.240;2023-07-31T10:37:36;7.13;;;2.83;;
18338;SDS011;9295;44.484;11.240;2023-07-31T10:40:06;5.10;;;2.60;;
18338;SDS011;9295;44.484;11.240;2023-07-31T10:42:45;8.10;;;2.70;;
18338;SDS011;9295;44.484;11.240;2023-07-31T10:45:23;5.97;;;2.87;;
18338;SDS011;9295;44.484;11.240;2023-07-31T10:48:00;3.57;;;2.37;;
18338;SDS011;9295;44.484;11.240;2023-07-31T10:50:30;6.83;;;2.73;;
18338;SDS011;9295;44.484;11.240;2023-07-31T10:53:00;12.73;;;2.47;;
18338;SDS011;9295;44.484;11.240;2023-07-31T10:55:30;4.10;;;2.30;;
18338;SDS011;9295;44.484;11.240;2023-07-31T10:58:11;5.40;;;2.30;;
18338;SDS011;9295;44.484;11.240;2023-07-31T11:00:42;4.20;;;2.40;;
18338;SDS011;9295;44.484;11.240;2023-07-31T11:03:12;9.13;;;3.20;;
18338;SDS011;9295;44.484;11.240;2023-07-31T11:05:46;8.30;;;2.70;;
18338;SDS011;9295;44.484;11.240;2023-07-31T11:08:17;6.67;;;2.80;;
18338;SDS011;9295;44.484;11.240;2023-07-31T11:10:48;4.93;;;2.87;;
18338;SDS011;9295;44.484;11.240;2023-07-31T11:13:20;6.90;;;2.67;;
18338;SDS011;9295;44.484;11.240;2023-07-31T11:15:49;5.77;;;2.80;;
18338;SDS011;9295;44.484;11.240;2023-07-31T11:18:17;8.30;;;2.93;;
18338;SDS011;9295;44.484;11.240;2023-07-31T11:20:46;11.57;;;2.80;;
18338;SDS011;9295;44.484;11.240;2023-07-31T11:23:15;5.00;;;2.80;;
18338;SDS011;9295;44.484;11.240;2023-07-31T11:25:44;5.50;;;2.60;;
18338;SDS011;9295;44.484;11.240;2023-07-31T11:28:14;8.27;;;3.20;;
18338;SDS011;9295;44.484;11.240;2023-07-31T11:30:45;6.93;;;3.13;;
18338;SDS011;9295;44.484;11.240;2023-07-31T11:33:14;10.67;;;2.93;;
18338;SDS011;9295;44.484;11.240;2023-07-31T11:35:43;19.93;;;3.30;;
18338;SDS011;9295;44.484;11.240;2023-07-31T11:38:20;3.93;;;2.53;;
18338;SDS011;9295;44.484;11.240;2023-07-31T11:40:50;6.40;;;3.00;;
18338;SDS011;9295;44.484;11.240;2023-07-31T11:43:20;5.43;;;3.10;;
18338;SDS011;9295;44.484;11.240;2023-07-31T11:45:51;5.50;;;2.57;;
18338;SDS011;9295;44.484;11.240;2023-07-31T11:48:25;4.97;;;3.17;;
18338;SDS011;9295;44.484;11.240;2023-07-31T11:50:56;8.93;;;2.97;;
18338;SDS011;9295;44.484;11.240;2023-07-31T11:53:26;5.13;;;2.67;;
18338;SDS011;9295;44.484;11.240;2023-07-31T11:55:59;8.93;;;3.23;;
18338;SDS011;9295;44.484;11.240;2023-07-31T11:58:29;5.00;;;3.07;;
18338;SDS011;9295;44.484;11.240;2023-07-31T12:01:00;6.47;;;3.17;;
18338;SDS011;9295;44.484;11.240;2023-07-31T12:03:29;3.87;;;2.60;;
18338;SDS011;9295;44.484;11.240;2023-07-31T12:06:00;6.20;;;2.90;;
18338;SDS011;9295;44.484;11.240;2023-07-31T12:08:29;11.20;;;2.87;;
18338;SDS011;9295;44.484;11.240;2023-07-31T12:11:02;6.80;;;2.90;;
18338;SDS011;9295;44.484;11.240;2023-07-31T12:13:32;3.90;;;2.60;;
18338;SDS011;9295;44.484;11.240;2023-07-31T12:16:03;6.17;;;3.20;;
18338;SDS011;9295;44.484;11.240;2023-07-31T12:18:33;5.80;;;3.17;;
18338;SDS011;9295;44.484;11.240;2023-07-31T12:21:04;5.30;;;3.30;;
18338;SDS011;9295;44.484;11.240;2023-07-31T12:23:34;7.60;;;2.80;;
18338;SDS011;9295;44.484;11.240;2023-07-31T12:26:05;6.63;;;2.93;;
18338;SDS011;9295;44.484;11.240;2023-07-31T12:28:35;4.87;;;2.47;;
18338;SDS011;9295;44.484;11.240;2023-07-31T12:31:07;4.63;;;2.63;;
18338;SDS011;9295;44.484;11.240;2023-07-31T12:33:38;6.23;;;2.57;;
18338;SDS011;9295;44.484;11.240;2023-07-31T12:36:08;3.90;;;2.60;;
18338;SDS011;9295;44.484;11.240;2023-07-31T12:38:37;3.80;;;2.50;;
18338;SDS011;9295;44.484;11.240;2023-07-31T12:41:06;7.27;;;3.00;;
18338;SDS011;9295;44.484;11.240;2023-07-31T12:43:35;6.73;;;2.80;;
18338;SDS011;9295;44.484;11.240;2023-07-31T12:46:04;7.07;;;3.30;;
18338;SDS011;9295;44.484;11.240;2023-07-31T12:48:35;5.60;;;2.53;;
18338;SDS011;9295;44.484;11.240;2023-07-31T12:51:05;3.67;;;2.40;;
18338;SDS011;9295;44.484;11.240;2023-07-31T12:53:34;6.90;;;2.67;;
18338;SDS011;9295;44.484;11.240;2023-07-31T12:56:03;3.90;;;2.57;;
18338;SDS011;9295;44.484;11.240;2023-07-31T12:58:32;5.40;;;2.80;;
18338;SDS011;9295;44.484;11.240;2023-07-31T13:01:00;5.83;;;2.77;;
18338;SDS011;9295;44.484;11.240;2023-07-31T13:03:31;4.40;;;2.70;;
18338;SDS011;9295;44.484;11.240;2023-07-31T13:06:00;6.37;;;2.93;;
18338;SDS011;9295;44.484;11.240;2023-07-31T13:08:28;9.87;;;3.37;;
18338;SDS011;9295;44.484;11.240;2023-07-31T13:10:57;6.53;;;2.60;;
18338;SDS011;9295;44.484;11.240;2023-07-31T13:13:25;6.53;;;2.90;;
18338;SDS011;9295;44.484;11.240;2023-07-31T13:15:56;7.40;;;3.07;;
18338;SDS011;9295;44.484;11.240;2023-07-31T13:18:24;4.77;;;2.47;;
18338;SDS011;9295;44.484;11.240;2023-07-31T13:20:54;16.90;;;3.20;;
18338;SDS011;9295;44.484;11.240;2023-07-31T13:23:23;9.83;;;3.00;;
18338;SDS011;9295;44.484;11.240;2023-07-31T13:25:51;5.93;;;2.70;;
18338;SDS011;9295;44.484;11.240;2023-07-31T13:28:20;9.37;;;3.07;;
18338;SDS011;9295;44.484;11.240;2023-07-31T13:30:49;6.07;;;2.93;;
18338;SDS011;9295;44.484;11.240;2023-07-31T13:33:17;11.97;;;2.90;;
18338;SDS011;9295;44.484;11.240;2023-07-31T13:36:04;5.83;;;2.63;;
18338;SDS011;9295;44.484;11.240;2023-07-31T13:38:33;5.20;;;2.60;;
18338;SDS011;9295;44.484;11.240;2023-07-31T13:41:01;5.83;;;2.80;;
18338;SDS011;9295;44.484;11.240;2023-07-31T13:43:30;5.87;;;2.73;;
18338;SDS011;9295;44.484;11.240;2023-07-31T13:45:59;4.77;;;2.80;;
18338;SDS011;9295;44.484;11.240;2023-07-31T13:48:34;9.27;;;3.03;;
18338;SDS011;9295;44.484;11.240;2023-07-31T13:51:04;4.33;;;2.80;;
18338;SDS011;9295;44.484;11.240;2023-07-31T13:53:33;6.40;;;2.70;;
18338;SDS011;9295;44.484;11.240;2023-07-31T13:56:02;4.67;;;2.90;;
18338;SDS011;9295;44.484;11.240;2023-07-31T13:58:31;4.40;;;2.47;;
18338;SDS011;9295;44.484;11.240;2023-07-31T14:01:01;4.67;;;2.70;;
18338;SDS011;9295;44.484;11.240;2023-07-31T14:03:30;6.73;;;2.90;;
18338;SDS011;9295;44.484;11.240;2023-07-31T14:05:58;5.37;;;2.80;;
18338;SDS011;9295;44.484;11.240;2023-07-31T14:08:28;10.50;;;2.80;;
18338;SDS011;9295;44.484;11.240;2023-07-31T14:10:57;6.03;;;3.00;;
18338;SDS011;9295;44.484;11.240;2023-07-31T14:13:26;5.00;;;2.97;;
18338;SDS011;9295;44.484;11.240;2023-07-31T14:15:54;5.53;;;2.80;;
18338;SDS011;9295;44.484;11.240;2023-07-31T14:18:23;7.30;;;3.20;;
18338;SDS011;9295;44.484;11.240;2023-07-31T14:20:52;5.63;;;2.50;;
18338;SDS011;9295;44.484;11.240;2023-07-31T14:23:21;6.10;;;2.90;;
18338;SDS011;9295;44.484;11.240;2023-07-31T14:25:51;7.40;;;2.57;;
18338;SDS011;9295;44.484;11.240;2023-07-31T14:28:19;6.03;;;3.07;;
18338;SDS011;9295;44.484;11.240;2023-07-31T14:30:48;7.47;;;3.10;;
18338;SDS011;9295;44.484;11.240;2023-07-31T14:33:17;9.57;;;3.10;;
18338;SDS011;9295;44.484;11.240;2023-07-31T14:35:48;3.67;;;2.87;;
18338;SDS011;9295;44.484;11.240;2023-07-31T14:38:16;6.07;;;2.93;;
18338;SDS011;9295;44.484;11.240;2023-07-31T14:40:45;5.13;;;2.90;;
18338;SDS011;9295;44.484;11.240;2023-07-31T14:43:15;7.73;;;2.63;;
18338;SDS011;9295;44.484;11.240;2023-07-31T14:45:44;6.70;;;2.80;;
18338;SDS011;9295;44.484;11.240;2023-07-31T14:48:14;4.83;;;2.30;;
18338;SDS011;9295;44.484;11.240;2023-07-31T14:50:42;7.27;;;2.77;;
18338;SDS011;9295;44.484;11.240;2023-07-31T14:53:11;7.97;;;2.57;;
18338;SDS011;9295;44.484;11.240;2023-07-31T14:55:40;5.43;;;2.60;;
18338;SDS011;9295;44.484;11.240;2023-07-31T14:58:08;7.93;;;2.67;;
18338;SDS011;9295;44.484;11.240;2023-07-31T15:00:40;13.90;;;2.77;;